sensor_id;sensor_type;location;lat;lon;timestamp;temperature;humidity
19152;DHT22;9708;53.114;9.388;2022-08-11T00:01:04;16.90;99.90
19152;DHT22;9708;53.114;9.388;2022-08-11T00:03:34;16.80;99.90
19152;DHT22;9708;53.114;9.388;2022-08-11T00:06:01;16.80;99.90
19152;DHT22;9708;53.114;9.388;2022-08-11T00:08:30;16.80;99.90
19152;DHT22;9708;53.114;9.388;2022-08-11T00:11:01;16.70;99.90
19152;DHT22;9708;53.114;9.388;2022-08-11T00:13:33;16.70;99.90
19152;DHT22;9708;53.114;9.388;2022-08-11T00:16:01;16.70;99.90
19152;DHT22;9708;53.114;9.388;2022-08-11T00:18:29;16.70;99.90
19152;DHT22;9708;53.114;9.388;2022-08-11T00:21:05;16.60;99.90
19152;DHT22;9708;53.114;9.388;2022-08-11T00:23:32;16.50;99.90
19152;DHT22;9708;53.114;9.388;2022-08-11T00:26:00;16.50;99.90
19152;DHT22;9708;53.114;9.388;2022-08-11T00:28:35;16.40;99.90
19152;DHT22;9708;53.114;9.388;2022-08-11T00:31:03;16.40;99.90
19152;DHT22;9708;53.114;9.388;2022-08-11T00:33:33;16.40;99.90
19152;DHT22;9708;53.114;9.388;2022-08-11T00:36:05;16.40;99.90
19152;DHT22;9708;53.114;9.388;2022-08-11T00:38:37;16.40;99.90
19152;DHT22;9708;53.114;9.388;2022-08-11T00:41:14;16.40;99.90
19152;DHT22;9708;53.114;9.388;2022-08-11T00:44:11;16.40;99.90
19152;DHT22;9708;53.114;9.388;2022-08-11T00:46:56;16.30;99.90
19152;DHT22;9708;53.114;9.388;2022-08-11T00:49:37;16.30;99.90
19152;DHT22;9708;53.114;9.388;2022-08-11T00:52:20;16.30;99.90
19152;DHT22;9708;53.114;9.388;2022-08-11T01:01:20;16.20;99.90
19152;DHT22;9708;53.114;9.388;2022-08-11T01:04:15;16.20;99.90
19152;DHT22;9708;53.114;9.388;2022-08-11T01:06:51;16.20;99.90
19152;DHT22;9708;53.114;9.388;2022-08-11T01:09:50;16.20;99.90
19152;DHT22;9708;53.114;9.388;2022-08-11T01:12:28;16.10;99.90
19152;DHT22;9708;53.114;9.388;2022-08-11T01:21:45;16.00;99.90
19152;DHT22;9708;53.114;9.388;2022-08-11T01:25:00;16.00;99.90
19152;DHT22;9708;53.114;9.388;2022-08-11T01:27:48;15.90;99.90
19152;DHT22;9708;53.114;9.388;2022-08-11T01:34:12;15.80;99.90
19152;DHT22;9708;53.114;9.388;2022-08-11T01:36:57;15.80;99.90
19152;DHT22;9708;53.114;9.388;2022-08-11T01:43:17;15.80;99.90
19152;DHT22;9708;53.114;9.388;2022-08-11T01:46:06;15.70;99.90
19152;DHT22;9708;53.114;9.388;2022-08-11T01:48:42;15.60;99.90
19152;DHT22;9708;53.114;9.388;2022-08-11T01:51:20;15.70;99.90
19152;DHT22;9708;53.114;9.388;2022-08-11T01:53:59;15.60;99.90
19152;DHT22;9708;53.114;9.388;2022-08-11T01:56:45;15.70;99.90
19152;DHT22;9708;53.114;9.388;2022-08-11T01:59:18;15.70;99.90
19152;DHT22;9708;53.114;9.388;2022-08-11T02:02:17;15.60;99.90
19152;DHT22;9708;53.114;9.388;2022-08-11T02:05:16;15.60;99.90
19152;DHT22;9708;53.114;9.388;2022-08-11T02:07:54;15.60;99.90
19152;DHT22;9708;53.114;9.388;2022-08-11T02:10:26;15.50;99.90
19152;DHT22;9708;53.114;9.388;2022-08-11T02:13:15;15.40;99.90
19152;DHT22;9708;53.114;9.388;2022-08-11T02:15:49;15.40;99.90
19152;DHT22;9708;53.114;9.388;2022-08-11T02:18:20;15.40;99.90
19152;DHT22;9708;53.114;9.388;2022-08-11T02:21:11;15.40;99.90
19152;DHT22;9708;53.114;9.388;2022-08-11T02:24:13;15.50;99.90
19152;DHT22;9708;53.114;9.388;2022-08-11T02:26:48;15.40;99.90
19152;DHT22;9708;53.114;9.388;2022-08-11T02:29:21;15.40;99.90
19152;DHT22;9708;53.114;9.388;2022-08-11T02:32:04;15.40;99.90
19152;DHT22;9708;53.114;9.388;2022-08-11T02:34:55;15.30;99.90
19152;DHT22;9708;53.114;9.388;2022-08-11T02:37:31;15.20;99.90
19152;DHT22;9708;53.114;9.388;2022-08-11T02:40:16;15.20;99.90
19152;DHT22;9708;53.114;9.388;2022-08-11T02:42:58;15.20;99.90
19152;DHT22;9708;53.114;9.388;2022-08-11T02:45:50;15.20;99.90
19152;DHT22;9708;53.114;9.388;2022-08-11T02:48:30;15.20;99.90
19152;DHT22;9708;53.114;9.388;2022-08-11T02:51:26;15.20;99.90
19152;DHT22;9708;53.114;9.388;2022-08-11T02:54:04;15.20;99.90
19152;DHT22;9708;53.114;9.388;2022-08-11T02:56:41;15.20;99.90
19152;DHT22;9708;53.114;9.388;2022-08-11T02:59:25;15.10;99.90
19152;DHT22;9708;53.114;9.388;2022-08-11T03:02:16;15.10;99.90
19152;DHT22;9708;53.114;9.388;2022-08-11T03:04:58;15.10;99.90
19152;DHT22;9708;53.114;9.388;2022-08-11T03:07:30;15.00;99.90
19152;DHT22;9708;53.114;9.388;2022-08-11T03:10:04;15.00;99.90
19152;DHT22;9708;53.114;9.388;2022-08-11T03:12:43;15.00;99.90
19152;DHT22;9708;53.114;9.388;2022-08-11T03:15:36;15.00;99.90
19152;DHT22;9708;53.114;9.388;2022-08-11T03:18:27;15.00;99.90
19152;DHT22;9708;53.114;9.388;2022-08-11T03:21:01;14.90;99.90
19152;DHT22;9708;53.114;9.388;2022-08-11T03:23:36;14.90;99.90
19152;DHT22;9708;53.114;9.388;2022-08-11T03:26:09;14.90;99.90
19152;DHT22;9708;53.114;9.388;2022-08-11T03:28:46;15.00;99.90
19152;DHT22;9708;53.114;9.388;2022-08-11T03:31:22;14.90;99.90
19152;DHT22;9708;53.114;9.388;2022-08-11T03:33:55;14.90;99.90
19152;DHT22;9708;53.114;9.388;2022-08-11T03:36:52;14.90;99.90
19152;DHT22;9708;53.114;9.388;2022-08-11T03:39:25;14.90;99.90
19152;DHT22;9708;53.114;9.388;2022-08-11T03:42:03;14.90;99.90
19152;DHT22;9708;53.114;9.388;2022-08-11T03:45:06;14.80;99.90
19152;DHT22;9708;53.114;9.388;2022-08-11T03:48:02;14.80;99.90
19152;DHT22;9708;53.114;9.388;2022-08-11T03:50:47;14.70;99.90
19152;DHT22;9708;53.114;9.388;2022-08-11T03:53:34;14.70;99.90
19152;DHT22;9708;53.114;9.388;2022-08-11T03:56:33;14.70;99.90
19152;DHT22;9708;53.114;9.388;2022-08-11T03:59:36;14.70;99.90
19152;DHT22;9708;53.114;9.388;2022-08-11T04:02:40;14.70;99.90
19152;DHT22;9708;53.114;9.388;2022-08-11T04:08:36;14.70;99.90
19152;DHT22;9708;53.114;9.388;2022-08-11T04:11:38;14.70;99.90
19152;DHT22;9708;53.114;9.388;2022-08-11T04:14:33;14.70;99.90
19152;DHT22;9708;53.114;9.388;2022-08-11T04:17:54;14.60;99.90
19152;DHT22;9708;53.114;9.388;2022-08-11T04:20:57;14.70;99.90
19152;DHT22;9708;53.114;9.388;2022-08-11T04:23:55;14.80;99.90
19152;DHT22;9708;53.114;9.388;2022-08-11T04:27:11;14.70;99.90
19152;DHT22;9708;53.114;9.388;2022-08-11T04:29:56;14.70;99.90
19152;DHT22;9708;53.114;9.388;2022-08-11T04:35:24;14.80;99.90
19152;DHT22;9708;53.114;9.388;2022-08-11T04:38:33;14.80;99.90
19152;DHT22;9708;53.114;9.388;2022-08-11T04:47:43;15.00;99.90
19152;DHT22;9708;53.114;9.388;2022-08-11T04:50:49;15.00;99.90
19152;DHT22;9708;53.114;9.388;2022-08-11T04:53:49;15.10;99.90
19152;DHT22;9708;53.114;9.388;2022-08-11T04:56:39;15.20;99.90
19152;DHT22;9708;53.114;9.388;2022-08-11T04:59:39;15.30;99.90
19152;DHT22;9708;53.114;9.388;2022-08-11T05:05:34;16.60;99.90
19152;DHT22;9708;53.114;9.388;2022-08-11T05:14:32;21.50;99.90
19152;DHT22;9708;53.114;9.388;2022-08-11T05:17:27;22.10;99.90
19152;DHT22;9708;53.114;9.388;2022-08-11T05:20:16;22.70;99.90
19152;DHT22;9708;53.114;9.388;2022-08-11T05:23:04;23.20;99.90
19152;DHT22;9708;53.114;9.388;2022-08-11T05:25:53;23.90;99.90
19152;DHT22;9708;53.114;9.388;2022-08-11T05:28:43;24.20;99.90
19152;DHT22;9708;53.114;9.388;2022-08-11T05:31:35;24.50;99.90
19152;DHT22;9708;53.114;9.388;2022-08-11T05:34:22;25.10;99.90
19152;DHT22;9708;53.114;9.388;2022-08-11T05:37:11;25.40;99.90
19152;DHT22;9708;53.114;9.388;2022-08-11T05:39:43;25.70;99.90
19152;DHT22;9708;53.114;9.388;2022-08-11T05:42:31;26.20;99.90
19152;DHT22;9708;53.114;9.388;2022-08-11T05:45:17;26.20;99.90
19152;DHT22;9708;53.114;9.388;2022-08-11T05:48:03;26.60;99.90
19152;DHT22;9708;53.114;9.388;2022-08-11T05:50:53;27.40;99.90
19152;DHT22;9708;53.114;9.388;2022-08-11T05:53:51;27.60;99.90
19152;DHT22;9708;53.114;9.388;2022-08-11T05:56:41;27.50;99.90
19152;DHT22;9708;53.114;9.388;2022-08-11T05:59:13;27.70;99.90
19152;DHT22;9708;53.114;9.388;2022-08-11T06:01:41;28.50;99.90
19152;DHT22;9708;53.114;9.388;2022-08-11T06:04:15;28.50;99.90
19152;DHT22;9708;53.114;9.388;2022-08-11T06:06:54;28.70;99.90
19152;DHT22;9708;53.114;9.388;2022-08-11T06:09:24;29.10;99.90
19152;DHT22;9708;53.114;9.388;2022-08-11T06:11:56;29.50;99.90
19152;DHT22;9708;53.114;9.388;2022-08-11T06:14:24;29.90;99.90
19152;DHT22;9708;53.114;9.388;2022-08-11T06:16:55;29.70;99.90
19152;DHT22;9708;53.114;9.388;2022-08-11T06:19:31;29.80;99.90
19152;DHT22;9708;53.114;9.388;2022-08-11T06:21:59;30.00;99.90
19152;DHT22;9708;53.114;9.388;2022-08-11T06:24:26;30.20;99.90
19152;DHT22;9708;53.114;9.388;2022-08-11T06:26:54;31.00;99.90
19152;DHT22;9708;53.114;9.388;2022-08-11T06:29:23;31.00;99.90
19152;DHT22;9708;53.114;9.388;2022-08-11T06:31:52;30.50;99.90
19152;DHT22;9708;53.114;9.388;2022-08-11T06:34:34;30.60;99.90
19152;DHT22;9708;53.114;9.388;2022-08-11T06:37:14;31.10;99.90
19152;DHT22;9708;53.114;9.388;2022-08-11T06:39:47;31.10;99.90
19152;DHT22;9708;53.114;9.388;2022-08-11T06:45:22;32.10;99.90
19152;DHT22;9708;53.114;9.388;2022-08-11T06:47:51;31.30;99.90
19152;DHT22;9708;53.114;9.388;2022-08-11T06:50:21;30.60;99.90
19152;DHT22;9708;53.114;9.388;2022-08-11T06:53:07;31.50;99.90
19152;DHT22;9708;53.114;9.388;2022-08-11T06:55:40;31.30;99.90
19152;DHT22;9708;53.114;9.388;2022-08-11T06:58:27;31.40;99.90
19152;DHT22;9708;53.114;9.388;2022-08-11T07:01:16;30.80;99.90
19152;DHT22;9708;53.114;9.388;2022-08-11T07:03:48;31.00;99.90
19152;DHT22;9708;53.114;9.388;2022-08-11T07:06:36;31.40;99.90
19152;DHT22;9708;53.114;9.388;2022-08-11T07:09:12;30.50;99.90
19152;DHT22;9708;53.114;9.388;2022-08-11T07:12:33;29.20;99.90
19152;DHT22;9708;53.114;9.388;2022-08-11T07:15:22;27.60;99.90
19152;DHT22;9708;53.114;9.388;2022-08-11T07:18:23;28.50;99.90
19152;DHT22;9708;53.114;9.388;2022-08-11T07:21:12;29.20;99.90
19152;DHT22;9708;53.114;9.388;2022-08-11T07:24:03;28.10;99.90
19152;DHT22;9708;53.114;9.388;2022-08-11T07:26:52;28.10;99.90
19152;DHT22;9708;53.114;9.388;2022-08-11T07:29:38;27.50;99.90
19152;DHT22;9708;53.114;9.388;2022-08-11T07:32:13;28.50;99.90
19152;DHT22;9708;53.114;9.388;2022-08-11T07:34:46;29.00;99.90
19152;DHT22;9708;53.114;9.388;2022-08-11T07:37:16;29.40;99.90
19152;DHT22;9708;53.114;9.388;2022-08-11T07:39:47;29.50;99.90
19152;DHT22;9708;53.114;9.388;2022-08-11T07:42:25;29.40;99.90
19152;DHT22;9708;53.114;9.388;2022-08-11T07:44:54;29.40;99.90
19152;DHT22;9708;53.114;9.388;2022-08-11T07:47:40;29.60;99.90
19152;DHT22;9708;53.114;9.388;2022-08-11T07:50:26;29.40;99.90
19152;DHT22;9708;53.114;9.388;2022-08-11T07:53:12;29.30;99.90
19152;DHT22;9708;53.114;9.388;2022-08-11T07:55:42;29.60;99.90
19152;DHT22;9708;53.114;9.388;2022-08-11T07:58:09;29.70;99.90
19152;DHT22;9708;53.114;9.388;2022-08-11T08:00:56;30.10;99.90
19152;DHT22;9708;53.114;9.388;2022-08-11T08:03:41;30.40;99.90
19152;DHT22;9708;53.114;9.388;2022-08-11T08:06:27;30.40;99.90
19152;DHT22;9708;53.114;9.388;2022-08-11T08:09:13;30.40;99.90
19152;DHT22;9708;53.114;9.388;2022-08-11T08:12:02;30.30;99.90
19152;DHT22;9708;53.114;9.388;2022-08-11T08:14:47;30.20;99.90
19152;DHT22;9708;53.114;9.388;2022-08-11T08:17:33;30.00;99.90
19152;DHT22;9708;53.114;9.388;2022-08-11T08:20:19;30.10;99.90
19152;DHT22;9708;53.114;9.388;2022-08-11T08:22:49;30.10;99.90
19152;DHT22;9708;53.114;9.388;2022-08-11T08:25:21;30.50;99.90
19152;DHT22;9708;53.114;9.388;2022-08-11T08:27:50;30.70;99.90
19152;DHT22;9708;53.114;9.388;2022-08-11T08:30:17;30.70;99.90
19152;DHT22;9708;53.114;9.388;2022-08-11T08:33:02;30.80;99.90
19152;DHT22;9708;53.114;9.388;2022-08-11T08:35:29;30.80;99.90
19152;DHT22;9708;53.114;9.388;2022-08-11T08:37:57;30.90;99.90
19152;DHT22;9708;53.114;9.388;2022-08-11T08:40:25;30.90;99.90
19152;DHT22;9708;53.114;9.388;2022-08-11T08:42:55;31.20;99.90
19152;DHT22;9708;53.114;9.388;2022-08-11T08:45:24;31.40;99.90
19152;DHT22;9708;53.114;9.388;2022-08-11T08:47:57;31.30;99.90
19152;DHT22;9708;53.114;9.388;2022-08-11T08:50:29;31.50;99.90
19152;DHT22;9708;53.114;9.388;2022-08-11T08:53:12;31.30;99.90
19152;DHT22;9708;53.114;9.388;2022-08-11T08:55:39;30.80;99.90
19152;DHT22;9708;53.114;9.388;2022-08-11T08:58:09;30.80;99.90
19152;DHT22;9708;53.114;9.388;2022-08-11T09:00:42;30.80;99.90
19152;DHT22;9708;53.114;9.388;2022-08-11T09:03:10;31.40;99.90
19152;DHT22;9708;53.114;9.388;2022-08-11T09:05:38;31.10;99.90
19152;DHT22;9708;53.114;9.388;2022-08-11T09:08:05;31.10;99.90
19152;DHT22;9708;53.114;9.388;2022-08-11T09:10:33;31.60;99.90
19152;DHT22;9708;53.114;9.388;2022-08-11T09:13:03;31.60;99.90
19152;DHT22;9708;53.114;9.388;2022-08-11T09:15:33;31.70;99.90
19152;DHT22;9708;53.114;9.388;2022-08-11T09:18:02;31.70;99.90
19152;DHT22;9708;53.114;9.388;2022-08-11T09:20:33;31.50;99.90
19152;DHT22;9708;53.114;9.388;2022-08-11T09:23:03;31.70;99.90
19152;DHT22;9708;53.114;9.388;2022-08-11T09:25:51;31.60;99.90
19152;DHT22;9708;53.114;9.388;2022-08-11T09:28:36;31.50;99.90
19152;DHT22;9708;53.114;9.388;2022-08-11T09:31:05;31.20;99.90
19152;DHT22;9708;53.114;9.388;2022-08-11T09:33:33;31.50;99.90
19152;DHT22;9708;53.114;9.388;2022-08-11T09:36:00;31.70;99.90
19152;DHT22;9708;53.114;9.388;2022-08-11T09:38:50;31.80;99.90
19152;DHT22;9708;53.114;9.388;2022-08-11T09:41:35;32.00;99.90
19152;DHT22;9708;53.114;9.388;2022-08-11T09:44:04;32.20;99.10
19152;DHT22;9708;53.114;9.388;2022-08-11T09:46:51;32.00;98.60
19152;DHT22;9708;53.114;9.388;2022-08-11T09:49:19;32.10;99.80
19152;DHT22;9708;53.114;9.388;2022-08-11T09:51:47;32.50;98.60
19152;DHT22;9708;53.114;9.388;2022-08-11T09:54:14;32.60;98.40
19152;DHT22;9708;53.114;9.388;2022-08-11T09:56:41;32.60;98.20
19152;DHT22;9708;53.114;9.388;2022-08-11T09:59:26;32.60;98.50
19152;DHT22;9708;53.114;9.388;2022-08-11T10:01:57;32.60;96.10
19152;DHT22;9708;53.114;9.388;2022-08-11T10:04:26;32.50;97.40
19152;DHT22;9708;53.114;9.388;2022-08-11T10:07:02;32.60;96.30
19152;DHT22;9708;53.114;9.388;2022-08-11T10:09:39;31.80;95.90
19152;DHT22;9708;53.114;9.388;2022-08-11T10:12:10;32.20;96.60
19152;DHT22;9708;53.114;9.388;2022-08-11T10:14:42;32.00;95.70
19152;DHT22;9708;53.114;9.388;2022-08-11T10:17:33;32.20;96.50
19152;DHT22;9708;53.114;9.388;2022-08-11T10:20:02;33.00;95.70
19152;DHT22;9708;53.114;9.388;2022-08-11T10:22:33;32.00;95.60
19152;DHT22;9708;53.114;9.388;2022-08-11T10:25:27;31.70;97.40
19152;DHT22;9708;53.114;9.388;2022-08-11T10:28:11;32.00;96.20
19152;DHT22;9708;53.114;9.388;2022-08-11T10:30:38;31.30;96.20
19152;DHT22;9708;53.114;9.388;2022-08-11T10:33:24;31.00;97.10
19152;DHT22;9708;53.114;9.388;2022-08-11T10:36:08;32.30;96.30
19152;DHT22;9708;53.114;9.388;2022-08-11T10:38:36;33.10;97.30
19152;DHT22;9708;53.114;9.388;2022-08-11T10:41:03;33.10;95.10
19152;DHT22;9708;53.114;9.388;2022-08-11T10:43:48;33.20;95.40
19152;DHT22;9708;53.114;9.388;2022-08-11T10:46:19;33.50;94.60
19152;DHT22;9708;53.114;9.388;2022-08-11T10:49:06;33.40;93.80
19152;DHT22;9708;53.114;9.388;2022-08-11T10:51:33;32.90;93.70
19152;DHT22;9708;53.114;9.388;2022-08-11T10:54:20;32.60;94.90
19152;DHT22;9708;53.114;9.388;2022-08-11T10:57:04;32.50;95.10
19152;DHT22;9708;53.114;9.388;2022-08-11T10:59:49;33.20;94.40
19152;DHT22;9708;53.114;9.388;2022-08-11T11:02:17;33.50;94.90
19152;DHT22;9708;53.114;9.388;2022-08-11T11:04:57;34.40;94.10
19152;DHT22;9708;53.114;9.388;2022-08-11T11:07:34;34.20;92.90
19152;DHT22;9708;53.114;9.388;2022-08-11T11:10:04;33.40;93.90
19152;DHT22;9708;53.114;9.388;2022-08-11T11:12:37;33.10;93.70
19152;DHT22;9708;53.114;9.388;2022-08-11T11:15:23;33.60;94.20
19152;DHT22;9708;53.114;9.388;2022-08-11T11:18:11;33.80;93.90
19152;DHT22;9708;53.114;9.388;2022-08-11T11:20:47;34.20;93.30
19152;DHT22;9708;53.114;9.388;2022-08-11T11:23:17;34.20;93.00
19152;DHT22;9708;53.114;9.388;2022-08-11T11:26:09;34.80;91.90
19152;DHT22;9708;53.114;9.388;2022-08-11T11:32:13;34.80;88.40
19152;DHT22;9708;53.114;9.388;2022-08-11T11:34:56;34.30;90.00
19152;DHT22;9708;53.114;9.388;2022-08-11T11:37:29;34.00;87.10
19152;DHT22;9708;53.114;9.388;2022-08-11T11:39:57;33.10;87.80
19152;DHT22;9708;53.114;9.388;2022-08-11T11:42:25;32.80;87.70
19152;DHT22;9708;53.114;9.388;2022-08-11T11:44:52;32.90;90.10
19152;DHT22;9708;53.114;9.388;2022-08-11T11:47:19;33.70;87.80
19152;DHT22;9708;53.114;9.388;2022-08-11T11:49:48;34.20;86.90
19152;DHT22;9708;53.114;9.388;2022-08-11T11:52:18;34.30;88.70
19152;DHT22;9708;53.114;9.388;2022-08-11T11:54:49;34.20;84.00
19152;DHT22;9708;53.114;9.388;2022-08-11T11:57:19;34.30;85.00
19152;DHT22;9708;53.114;9.388;2022-08-11T12:00:04;34.10;83.90
19152;DHT22;9708;53.114;9.388;2022-08-11T12:02:49;34.00;83.10
19152;DHT22;9708;53.114;9.388;2022-08-11T12:05:17;33.80;82.90
19152;DHT22;9708;53.114;9.388;2022-08-11T12:07:45;33.80;83.90
19152;DHT22;9708;53.114;9.388;2022-08-11T12:10:33;33.50;85.80
19152;DHT22;9708;53.114;9.388;2022-08-11T12:13:01;34.10;88.50
19152;DHT22;9708;53.114;9.388;2022-08-11T12:15:46;33.90;89.00
19152;DHT22;9708;53.114;9.388;2022-08-11T12:18:14;34.10;90.80
19152;DHT22;9708;53.114;9.388;2022-08-11T12:20:41;34.20;90.70
19152;DHT22;9708;53.114;9.388;2022-08-11T12:23:12;34.40;87.20
19152;DHT22;9708;53.114;9.388;2022-08-11T12:25:59;34.10;81.00
19152;DHT22;9708;53.114;9.388;2022-08-11T12:28:44;34.00;81.70
19152;DHT22;9708;53.114;9.388;2022-08-11T12:31:11;34.00;82.70
19152;DHT22;9708;53.114;9.388;2022-08-11T12:33:38;34.20;80.10
19152;DHT22;9708;53.114;9.388;2022-08-11T12:36:08;33.60;82.00
19152;DHT22;9708;53.114;9.388;2022-08-11T12:38:42;33.70;79.40
19152;DHT22;9708;53.114;9.388;2022-08-11T12:41:11;34.10;80.60
19152;DHT22;9708;53.114;9.388;2022-08-11T12:43:58;34.30;83.00
19152;DHT22;9708;53.114;9.388;2022-08-11T12:46:45;34.50;82.80
19152;DHT22;9708;53.114;9.388;2022-08-11T12:49:13;34.10;79.10
19152;DHT22;9708;53.114;9.388;2022-08-11T12:52:08;33.80;80.20
19152;DHT22;9708;53.114;9.388;2022-08-11T12:54:43;33.90;80.60
19152;DHT22;9708;53.114;9.388;2022-08-11T12:57:16;34.00;82.80
19152;DHT22;9708;53.114;9.388;2022-08-11T13:00:02;34.20;78.80
19152;DHT22;9708;53.114;9.388;2022-08-11T13:02:47;34.30;76.90
19152;DHT22;9708;53.114;9.388;2022-08-11T13:05:32;34.50;75.90
19152;DHT22;9708;53.114;9.388;2022-08-11T13:08:00;34.10;78.20
19152;DHT22;9708;53.114;9.388;2022-08-11T13:10:28;33.90;78.40
19152;DHT22;9708;53.114;9.388;2022-08-11T13:13:14;34.10;79.60
19152;DHT22;9708;53.114;9.388;2022-08-11T13:15:44;34.50;78.60
19152;DHT22;9708;53.114;9.388;2022-08-11T13:18:14;34.10;77.00
19152;DHT22;9708;53.114;9.388;2022-08-11T13:20:41;34.60;79.10
19152;DHT22;9708;53.114;9.388;2022-08-11T13:23:09;35.00;77.90
19152;DHT22;9708;53.114;9.388;2022-08-11T13:25:38;34.80;77.90
19152;DHT22;9708;53.114;9.388;2022-08-11T13:28:05;34.60;75.80
19152;DHT22;9708;53.114;9.388;2022-08-11T13:30:34;34.80;77.00
19152;DHT22;9708;53.114;9.388;2022-08-11T13:33:18;34.90;77.90
19152;DHT22;9708;53.114;9.388;2022-08-11T13:35:49;34.80;78.20
19152;DHT22;9708;53.114;9.388;2022-08-11T13:38:18;34.30;79.70
19152;DHT22;9708;53.114;9.388;2022-08-11T13:40:47;34.20;81.00
19152;DHT22;9708;53.114;9.388;2022-08-11T13:43:15;34.40;79.90
19152;DHT22;9708;53.114;9.388;2022-08-11T13:45:44;34.60;80.30
19152;DHT22;9708;53.114;9.388;2022-08-11T13:48:12;34.50;81.50
19152;DHT22;9708;53.114;9.388;2022-08-11T13:50:40;34.60;78.70
19152;DHT22;9708;53.114;9.388;2022-08-11T13:53:26;34.40;82.30
19152;DHT22;9708;53.114;9.388;2022-08-11T13:55:57;34.30;78.20
19152;DHT22;9708;53.114;9.388;2022-08-11T13:58:25;34.00;81.50
19152;DHT22;9708;53.114;9.388;2022-08-11T14:00:54;34.20;79.60
19152;DHT22;9708;53.114;9.388;2022-08-11T14:03:24;34.00;78.70
19152;DHT22;9708;53.114;9.388;2022-08-11T14:05:52;33.60;81.20
19152;DHT22;9708;53.114;9.388;2022-08-11T14:08:24;33.70;77.90
19152;DHT22;9708;53.114;9.388;2022-08-11T14:10:52;32.50;79.60
19152;DHT22;9708;53.114;9.388;2022-08-11T14:13:36;32.70;82.50
19152;DHT22;9708;53.114;9.388;2022-08-11T14:16:08;32.80;81.80
19152;DHT22;9708;53.114;9.388;2022-08-11T14:18:41;32.60;81.00
19152;DHT22;9708;53.114;9.388;2022-08-11T14:21:11;32.70;81.20
19152;DHT22;9708;53.114;9.388;2022-08-11T14:23:57;32.40;81.60
19152;DHT22;9708;53.114;9.388;2022-08-11T14:26:25;32.30;82.20
19152;DHT22;9708;53.114;9.388;2022-08-11T14:28:54;32.30;83.00
19152;DHT22;9708;53.114;9.388;2022-08-11T14:31:24;32.10;84.40
19152;DHT22;9708;53.114;9.388;2022-08-11T14:33:53;32.10;84.30
19152;DHT22;9708;53.114;9.388;2022-08-11T14:36:22;31.90;81.50
19152;DHT22;9708;53.114;9.388;2022-08-11T14:38:50;31.60;83.10
19152;DHT22;9708;53.114;9.388;2022-08-11T14:41:19;31.50;83.80
19152;DHT22;9708;53.114;9.388;2022-08-11T14:44:04;31.30;82.90
19152;DHT22;9708;53.114;9.388;2022-08-11T14:46:50;31.10;83.00
19152;DHT22;9708;53.114;9.388;2022-08-11T14:49:36;31.10;83.60
19152;DHT22;9708;53.114;9.388;2022-08-11T14:52:06;31.10;82.60
19152;DHT22;9708;53.114;9.388;2022-08-11T14:54:35;30.90;82.20
19152;DHT22;9708;53.114;9.388;2022-08-11T14:57:20;30.80;85.80
19152;DHT22;9708;53.114;9.388;2022-08-11T14:59:49;30.90;85.30
19152;DHT22;9708;53.114;9.388;2022-08-11T15:02:18;30.90;86.10
19152;DHT22;9708;53.114;9.388;2022-08-11T15:05:04;30.80;86.50
19152;DHT22;9708;53.114;9.388;2022-08-11T15:07:32;30.60;86.00
19152;DHT22;9708;53.114;9.388;2022-08-11T15:10:02;30.60;86.40
19152;DHT22;9708;53.114;9.388;2022-08-11T15:12:30;30.50;89.70
19152;DHT22;9708;53.114;9.388;2022-08-11T15:14:58;30.50;86.80
19152;DHT22;9708;53.114;9.388;2022-08-11T15:17:44;30.40;86.80
19152;DHT22;9708;53.114;9.388;2022-08-11T15:20:15;30.40;87.50
19152;DHT22;9708;53.114;9.388;2022-08-11T15:23:00;30.40;86.50
19152;DHT22;9708;53.114;9.388;2022-08-11T15:25:49;30.40;86.40
19152;DHT22;9708;53.114;9.388;2022-08-11T15:28:17;30.30;87.90
19152;DHT22;9708;53.114;9.388;2022-08-11T15:31:03;30.20;87.80
19152;DHT22;9708;53.114;9.388;2022-08-11T15:33:51;30.10;87.50
19152;DHT22;9708;53.114;9.388;2022-08-11T15:36:44;30.10;88.20
19152;DHT22;9708;53.114;9.388;2022-08-11T15:39:33;30.00;87.70
19152;DHT22;9708;53.114;9.388;2022-08-11T15:42:03;29.90;87.80
19152;DHT22;9708;53.114;9.388;2022-08-11T15:44:53;29.90;88.50
19152;DHT22;9708;53.114;9.388;2022-08-11T15:47:43;29.80;89.80
19152;DHT22;9708;53.114;9.388;2022-08-11T15:50:16;29.80;88.80
19152;DHT22;9708;53.114;9.388;2022-08-11T15:52:48;29.70;88.40
19152;DHT22;9708;53.114;9.388;2022-08-11T15:55:19;29.60;88.40
19152;DHT22;9708;53.114;9.388;2022-08-11T15:57:49;29.60;88.00
19152;DHT22;9708;53.114;9.388;2022-08-11T16:00:35;29.70;89.20
19152;DHT22;9708;53.114;9.388;2022-08-11T16:03:22;29.70;89.00
19152;DHT22;9708;53.114;9.388;2022-08-11T16:06:10;29.60;88.50
19152;DHT22;9708;53.114;9.388;2022-08-11T16:08:39;29.60;89.10
19152;DHT22;9708;53.114;9.388;2022-08-11T16:11:07;29.50;89.20
19152;DHT22;9708;53.114;9.388;2022-08-11T16:13:36;29.50;90.10
19152;DHT22;9708;53.114;9.388;2022-08-11T16:16:21;29.50;88.60
19152;DHT22;9708;53.114;9.388;2022-08-11T16:18:50;29.40;88.80
19152;DHT22;9708;53.114;9.388;2022-08-11T16:21:23;29.30;88.90
19152;DHT22;9708;53.114;9.388;2022-08-11T16:23:53;29.10;89.40
19152;DHT22;9708;53.114;9.388;2022-08-11T16:26:23;29.20;88.10
19152;DHT22;9708;53.114;9.388;2022-08-11T16:28:51;29.10;88.50
19152;DHT22;9708;53.114;9.388;2022-08-11T16:31:20;29.10;89.30
19152;DHT22;9708;53.114;9.388;2022-08-11T16:33:48;29.00;89.20
19152;DHT22;9708;53.114;9.388;2022-08-11T16:36:16;29.00;89.50
19152;DHT22;9708;53.114;9.388;2022-08-11T16:39:04;28.90;89.10
19152;DHT22;9708;53.114;9.388;2022-08-11T16:41:33;28.80;89.80
19152;DHT22;9708;53.114;9.388;2022-08-11T16:44:19;28.80;89.30
19152;DHT22;9708;53.114;9.388;2022-08-11T16:47:05;28.80;90.00
19152;DHT22;9708;53.114;9.388;2022-08-11T16:49:35;28.80;89.90
19152;DHT22;9708;53.114;9.388;2022-08-11T16:52:03;28.80;88.50
19152;DHT22;9708;53.114;9.388;2022-08-11T16:54:37;28.80;88.40
19152;DHT22;9708;53.114;9.388;2022-08-11T16:57:08;28.70;89.40
19152;DHT22;9708;53.114;9.388;2022-08-11T16:59:54;28.70;87.60
19152;DHT22;9708;53.114;9.388;2022-08-11T17:02:26;28.60;88.40
19152;DHT22;9708;53.114;9.388;2022-08-11T17:05:16;28.60;87.80
19152;DHT22;9708;53.114;9.388;2022-08-11T17:08:02;28.40;88.50
19152;DHT22;9708;53.114;9.388;2022-08-11T17:10:52;28.40;89.10
19152;DHT22;9708;53.114;9.388;2022-08-11T17:13:42;28.30;90.00
19152;DHT22;9708;53.114;9.388;2022-08-11T17:16:11;28.20;90.20
19152;DHT22;9708;53.114;9.388;2022-08-11T17:18:50;28.20;90.30
19152;DHT22;9708;53.114;9.388;2022-08-11T17:21:22;28.20;90.30
19152;DHT22;9708;53.114;9.388;2022-08-11T17:23:54;28.10;90.00
19152;DHT22;9708;53.114;9.388;2022-08-11T17:26:27;28.00;90.10
19152;DHT22;9708;53.114;9.388;2022-08-11T17:29:18;28.00;90.60
19152;DHT22;9708;53.114;9.388;2022-08-11T17:31:46;28.00;89.80
19152;DHT22;9708;53.114;9.388;2022-08-11T17:34:32;27.90;90.20
19152;DHT22;9708;53.114;9.388;2022-08-11T17:37:16;27.90;90.50
19152;DHT22;9708;53.114;9.388;2022-08-11T17:39:45;27.80;89.90
19152;DHT22;9708;53.114;9.388;2022-08-11T17:42:14;27.80;90.40
19152;DHT22;9708;53.114;9.388;2022-08-11T17:44:59;27.70;90.50